sensor_id;sensor_type;location;lat;lon;timestamp;temperature;humidity
84330;SHT31;74510;42.676;23.432;2024-03-02T00:01:40;7.93;82.64
84330;SHT31;74510;42.676;23.432;2024-03-02T00:04:07;7.92;82.79
84330;SHT31;74510;42.676;23.432;2024-03-02T00:06:33;7.88;82.92
84330;SHT31;74510;42.676;23.432;2024-03-02T00:08:58;7.99;82.32
84330;SHT31;74510;42.676;23.432;2024-03-02T00:11:24;8.01;82.13
84330;SHT31;74510;42.676;23.432;2024-03-02T00:13:52;7.95;82.52
84330;SHT31;74510;42.676;23.432;2024-03-02T00:16:18;8.01;82.14
84330;SHT31;74510;42.676;23.432;2024-03-02T00:18:43;8.03;82.06
84330;SHT31;74510;42.676;23.432;2024-03-02T00:21:09;8.01;82.29
84330;SHT31;74510;42.676;23.432;2024-03-02T00:23:35;8.02;82.10
84330;SHT31;74510;42.676;23.432;2024-03-02T00:26:01;8.01;82.07
84330;SHT31;74510;42.676;23.432;2024-03-02T00:28:27;7.92;82.35
84330;SHT31;74510;42.676;23.432;2024-03-02T00:30:58;7.93;82.52
84330;SHT31;74510;42.676;23.432;2024-03-02T00:33:26;7.89;82.77
84330;SHT31;74510;42.676;23.432;2024-03-02T00:35:53;7.92;82.68
84330;SHT31;74510;42.676;23.432;2024-03-02T00:38:18;7.92;82.74
84330;SHT31;74510;42.676;23.432;2024-03-02T00:40:45;7.85;82.80
84330;SHT31;74510;42.676;23.432;2024-03-02T00:46:03;7.85;82.93
84330;SHT31;74510;42.676;23.432;2024-03-02T00:48:29;7.88;83.20
84330;SHT31;74510;42.676;23.432;2024-03-02T00:50:56;7.77;83.52
84330;SHT31;74510;42.676;23.432;2024-03-02T00:53:23;7.75;83.66
84330;SHT31;74510;42.676;23.432;2024-03-02T00:55:51;7.75;83.62
84330;SHT31;74510;42.676;23.432;2024-03-02T00:58:16;7.75;83.46
84330;SHT31;74510;42.676;23.432;2024-03-02T01:00:42;7.85;82.37
84330;SHT31;74510;42.676;23.432;2024-03-02T01:03:07;7.77;83.10
84330;SHT31;74510;42.676;23.432;2024-03-02T01:05:33;7.68;83.65
84330;SHT31;74510;42.676;23.432;2024-03-02T01:07:58;7.79;83.65
84330;SHT31;74510;42.676;23.432;2024-03-02T01:10:24;7.91;82.62
84330;SHT31;74510;42.676;23.432;2024-03-02T01:12:51;8.01;81.96
84330;SHT31;74510;42.676;23.432;2024-03-02T01:15:16;8.10;81.16
84330;SHT31;74510;42.676;23.432;2024-03-02T01:17:42;7.95;82.29
84330;SHT31;74510;42.676;23.432;2024-03-02T01:20:08;7.86;82.93
84330;SHT31;74510;42.676;23.432;2024-03-02T01:22:34;7.81;83.29
84330;SHT31;74510;42.676;23.432;2024-03-02T01:25:01;7.82;83.69
84330;SHT31;74510;42.676;23.432;2024-03-02T01:27:26;7.89;84.15
84330;SHT31;74510;42.676;23.432;2024-03-02T01:29:52;7.77;84.43
84330;SHT31;74510;42.676;23.432;2024-03-02T01:32:17;7.65;84.89
84330;SHT31;74510;42.676;23.432;2024-03-02T01:34:43;7.68;85.08
84330;SHT31;74510;42.676;23.432;2024-03-02T01:37:08;7.65;85.01
84330;SHT31;74510;42.676;23.432;2024-03-02T01:39:35;7.65;84.75
84330;SHT31;74510;42.676;23.432;2024-03-02T01:42:03;7.63;84.83
84330;SHT31;74510;42.676;23.432;2024-03-02T01:44:28;7.57;85.46
84330;SHT31;74510;42.676;23.432;2024-03-02T01:46:54;7.53;85.69
84330;SHT31;74510;42.676;23.432;2024-03-02T01:49:19;7.48;86.02
84330;SHT31;74510;42.676;23.432;2024-03-02T01:51:45;7.40;86.42
84330;SHT31;74510;42.676;23.432;2024-03-02T01:54:11;7.46;86.47
84330;SHT31;74510;42.676;23.432;2024-03-02T01:56:36;7.46;86.64
84330;SHT31;74510;42.676;23.432;2024-03-02T01:59:02;7.43;86.79
84330;SHT31;74510;42.676;23.432;2024-03-02T02:01:28;7.42;86.88
84330;SHT31;74510;42.676;23.432;2024-03-02T02:03:53;7.42;86.88
84330;SHT31;74510;42.676;23.432;2024-03-02T02:06:19;7.43;86.81
84330;SHT31;74510;42.676;23.432;2024-03-02T02:08:44;7.44;86.56
84330;SHT31;74510;42.676;23.432;2024-03-02T02:11:10;7.44;86.84
84330;SHT31;74510;42.676;23.432;2024-03-02T02:13:36;7.44;87.12
84330;SHT31;74510;42.676;23.432;2024-03-02T02:16:06;7.38;87.07
84330;SHT31;74510;42.676;23.432;2024-03-02T02:18:32;7.37;87.25
84330;SHT31;74510;42.676;23.432;2024-03-02T02:20:57;7.42;87.34
84330;SHT31;74510;42.676;23.432;2024-03-02T02:23:23;7.40;87.49
84330;SHT31;74510;42.676;23.432;2024-03-02T02:25:48;7.42;87.50
84330;SHT31;74510;42.676;23.432;2024-03-02T02:28:14;7.38;87.31
84330;SHT31;74510;42.676;23.432;2024-03-02T02:30:39;7.38;87.22
84330;SHT31;74510;42.676;23.432;2024-03-02T02:33:04;7.34;87.52
84330;SHT31;74510;42.676;23.432;2024-03-02T02:35:30;7.34;87.73
84330;SHT31;74510;42.676;23.432;2024-03-02T02:37:56;7.37;87.54
84330;SHT31;74510;42.676;23.432;2024-03-02T02:40:22;7.36;87.85
84330;SHT31;74510;42.676;23.432;2024-03-02T02:42:48;7.42;86.98
84330;SHT31;74510;42.676;23.432;2024-03-02T02:45:14;7.36;87.25
84330;SHT31;74510;42.676;23.432;2024-03-02T02:47:43;7.40;87.30
84330;SHT31;74510;42.676;23.432;2024-03-02T02:50:11;7.38;87.48
84330;SHT31;74510;42.676;23.432;2024-03-02T02:52:38;7.37;87.97
84330;SHT31;74510;42.676;23.432;2024-03-02T02:55:06;7.38;88.00
84330;SHT31;74510;42.676;23.432;2024-03-02T02:57:33;7.30;88.90
84330;SHT31;74510;42.676;23.432;2024-03-02T03:00:05;7.30;88.83
84330;SHT31;74510;42.676;23.432;2024-03-02T03:02:35;7.44;88.42
84330;SHT31;74510;42.676;23.432;2024-03-02T03:05:00;7.34;87.95
84330;SHT31;74510;42.676;23.432;2024-03-02T03:07:26;7.34;88.06
84330;SHT31;74510;42.676;23.432;2024-03-02T03:09:51;7.27;88.06
84330;SHT31;74510;42.676;23.432;2024-03-02T03:12:17;7.30;88.24
84330;SHT31;74510;42.676;23.432;2024-03-02T03:14:42;7.28;88.19
84330;SHT31;74510;42.676;23.432;2024-03-02T03:17:07;7.30;88.19
84330;SHT31;74510;42.676;23.432;2024-03-02T03:19:33;7.31;87.82
84330;SHT31;74510;42.676;23.432;2024-03-02T03:21:59;7.37;87.62
84330;SHT31;74510;42.676;23.432;2024-03-02T03:24:24;7.37;87.16
84330;SHT31;74510;42.676;23.432;2024-03-02T03:26:49;7.46;87.05
84330;SHT31;74510;42.676;23.432;2024-03-02T03:29:15;7.42;87.16
84330;SHT31;74510;42.676;23.432;2024-03-02T03:31:40;7.42;87.42
84330;SHT31;74510;42.676;23.432;2024-03-02T03:34:06;7.43;87.40
84330;SHT31;74510;42.676;23.432;2024-03-02T03:36:31;7.40;87.40
84330;SHT31;74510;42.676;23.432;2024-03-02T03:38:56;7.38;87.74
84330;SHT31;74510;42.676;23.432;2024-03-02T03:41:22;7.42;87.48
84330;SHT31;74510;42.676;23.432;2024-03-02T03:43:48;7.42;87.53
84330;SHT31;74510;42.676;23.432;2024-03-02T03:46:13;7.44;87.53
84330;SHT31;74510;42.676;23.432;2024-03-02T03:48:39;7.50;87.34
84330;SHT31;74510;42.676;23.432;2024-03-02T03:51:04;7.43;87.96
84330;SHT31;74510;42.676;23.432;2024-03-02T03:53:30;7.42;87.98
84330;SHT31;74510;42.676;23.432;2024-03-02T03:55:55;7.38;88.08
84330;SHT31;74510;42.676;23.432;2024-03-02T03:58:20;7.38;87.82
84330;SHT31;74510;42.676;23.432;2024-03-02T04:00:46;7.34;88.00
84330;SHT31;74510;42.676;23.432;2024-03-02T04:03:11;7.40;87.95
84330;SHT31;74510;42.676;23.432;2024-03-02T04:05:37;7.37;87.85
84330;SHT31;74510;42.676;23.432;2024-03-02T04:08:03;7.33;88.22
84330;SHT31;74510;42.676;23.432;2024-03-02T04:10:29;7.38;88.13
84330;SHT31;74510;42.676;23.432;2024-03-02T04:12:55;7.40;88.25
84330;SHT31;74510;42.676;23.432;2024-03-02T04:15:21;7.38;88.40
84330;SHT31;74510;42.676;23.432;2024-03-02T04:17:48;7.34;88.63
84330;SHT31;74510;42.676;23.432;2024-03-02T04:20:14;7.33;88.74
84330;SHT31;74510;42.676;23.432;2024-03-02T04:22:39;7.33;89.10
84330;SHT31;74510;42.676;23.432;2024-03-02T04:25:05;7.43;89.36
84330;SHT31;74510;42.676;23.432;2024-03-02T04:27:31;7.27;89.35
84330;SHT31;74510;42.676;23.432;2024-03-02T04:29:59;7.24;89.48
84330;SHT31;74510;42.676;23.432;2024-03-02T04:32:26;7.23;89.62
84330;SHT31;74510;42.676;23.432;2024-03-02T04:34:51;7.26;89.65
84330;SHT31;74510;42.676;23.432;2024-03-02T04:37:17;7.24;89.56
84330;SHT31;74510;42.676;23.432;2024-03-02T04:39:42;7.24;89.61
84330;SHT31;74510;42.676;23.432;2024-03-02T04:42:08;7.24;89.61
84330;SHT31;74510;42.676;23.432;2024-03-02T04:44:33;7.23;89.64
84330;SHT31;74510;42.676;23.432;2024-03-02T04:46:59;7.22;89.79
84330;SHT31;74510;42.676;23.432;2024-03-02T04:49:24;7.22;89.50
84330;SHT31;74510;42.676;23.432;2024-03-02T04:51:49;7.19;89.83
84330;SHT31;74510;42.676;23.432;2024-03-02T04:54:15;7.17;89.74
84330;SHT31;74510;42.676;23.432;2024-03-02T04:56:40;7.17;90.05
84330;SHT31;74510;42.676;23.432;2024-03-02T04:59:10;7.16;90.00
84330;SHT31;74510;42.676;23.432;2024-03-02T05:01:35;7.15;90.21
84330;SHT31;74510;42.676;23.432;2024-03-02T05:04:01;7.17;90.06
84330;SHT31;74510;42.676;23.432;2024-03-02T05:06:26;7.16;90.25
84330;SHT31;74510;42.676;23.432;2024-03-02T05:08:51;7.15;90.27
84330;SHT31;74510;42.676;23.432;2024-03-02T05:11:17;7.16;90.39
84330;SHT31;74510;42.676;23.432;2024-03-02T05:14:13;7.12;90.56
84330;SHT31;74510;42.676;23.432;2024-03-02T05:16:39;7.09;90.72
84330;SHT31;74510;42.676;23.432;2024-03-02T05:19:06;7.07;90.93
84330;SHT31;74510;42.676;23.432;2024-03-02T05:21:32;7.07;90.98
84330;SHT31;74510;42.676;23.432;2024-03-02T05:23:57;7.12;90.71
84330;SHT31;74510;42.676;23.432;2024-03-02T05:26:23;7.09;90.95
84330;SHT31;74510;42.676;23.432;2024-03-02T05:28:48;7.07;91.15
84330;SHT31;74510;42.676;23.432;2024-03-02T05:31:17;7.09;91.27
84330;SHT31;74510;42.676;23.432;2024-03-02T05:33:43;7.10;90.84
84330;SHT31;74510;42.676;23.432;2024-03-02T05:36:09;7.05;91.27
84330;SHT31;74510;42.676;23.432;2024-03-02T05:38:35;7.05;91.44
84330;SHT31;74510;42.676;23.432;2024-03-02T05:41:00;7.02;91.63
84330;SHT31;74510;42.676;23.432;2024-03-02T05:43:26;7.00;91.80
84330;SHT31;74510;42.676;23.432;2024-03-02T05:45:51;6.99;91.85
84330;SHT31;74510;42.676;23.432;2024-03-02T05:48:17;7.00;91.85
84330;SHT31;74510;42.676;23.432;2024-03-02T05:50:42;7.03;91.97
84330;SHT31;74510;42.676;23.432;2024-03-02T05:53:07;7.03;91.98
84330;SHT31;74510;42.676;23.432;2024-03-02T05:55:33;7.02;92.42
84330;SHT31;74510;42.676;23.432;2024-03-02T05:57:58;7.00;92.37
84330;SHT31;74510;42.676;23.432;2024-03-02T06:00:24;7.02;92.31
84330;SHT31;74510;42.676;23.432;2024-03-02T06:02:49;7.00;92.12
84330;SHT31;74510;42.676;23.432;2024-03-02T06:05:15;7.02;92.20
84330;SHT31;74510;42.676;23.432;2024-03-02T06:07:42;6.97;92.41
84330;SHT31;74510;42.676;23.432;2024-03-02T06:10:08;6.99;92.67
84330;SHT31;74510;42.676;23.432;2024-03-02T06:12:34;6.95;92.80
84330;SHT31;74510;42.676;23.432;2024-03-02T06:14:59;6.99;92.64
84330;SHT31;74510;42.676;23.432;2024-03-02T06:17:25;7.00;92.81
84330;SHT31;74510;42.676;23.432;2024-03-02T06:19:51;7.03;92.64
84330;SHT31;74510;42.676;23.432;2024-03-02T06:22:16;6.99;92.84
84330;SHT31;74510;42.676;23.432;2024-03-02T06:24:41;7.00;92.82
84330;SHT31;74510;42.676;23.432;2024-03-02T06:27:07;6.99;93.03
84330;SHT31;74510;42.676;23.432;2024-03-02T06:29:33;6.99;93.03
84330;SHT31;74510;42.676;23.432;2024-03-02T06:31:59;7.05;93.07
84330;SHT31;74510;42.676;23.432;2024-03-02T06:34:25;7.03;93.10
84330;SHT31;74510;42.676;23.432;2024-03-02T06:36:50;7.12;92.91
84330;SHT31;74510;42.676;23.432;2024-03-02T06:39:15;7.16;92.71
84330;SHT31;74510;42.676;23.432;2024-03-02T06:41:41;7.10;92.82
84330;SHT31;74510;42.676;23.432;2024-03-02T06:44:07;7.12;92.81
84330;SHT31;74510;42.676;23.432;2024-03-02T06:46:33;7.07;92.86
84330;SHT31;74510;42.676;23.432;2024-03-02T06:48:58;7.13;92.94
84330;SHT31;74510;42.676;23.432;2024-03-02T06:51:24;7.16;92.97
84330;SHT31;74510;42.676;23.432;2024-03-02T06:53:49;7.13;92.96
84330;SHT31;74510;42.676;23.432;2024-03-02T06:56:15;7.17;92.84
84330;SHT31;74510;42.676;23.432;2024-03-02T06:58:40;7.22;92.73
84330;SHT31;74510;42.676;23.432;2024-03-02T07:01:05;7.17;93.22
84330;SHT31;74510;42.676;23.432;2024-03-02T07:03:31;7.22;93.30
84330;SHT31;74510;42.676;23.432;2024-03-02T07:05:58;7.28;92.99
84330;SHT31;74510;42.676;23.432;2024-03-02T07:08:23;7.24;92.97
84330;SHT31;74510;42.676;23.432;2024-03-02T07:10:48;7.26;92.83
84330;SHT31;74510;42.676;23.432;2024-03-02T07:13:14;7.24;93.02
84330;SHT31;74510;42.676;23.432;2024-03-02T07:15:40;7.27;93.19
84330;SHT31;74510;42.676;23.432;2024-03-02T07:18:23;7.30;93.18
84330;SHT31;74510;42.676;23.432;2024-03-02T07:20:49;7.30;92.91
84330;SHT31;74510;42.676;23.432;2024-03-02T07:23:15;7.33;92.96
84330;SHT31;74510;42.676;23.432;2024-03-02T07:25:40;7.30;92.97
84330;SHT31;74510;42.676;23.432;2024-03-02T07:28:06;7.38;93.03
84330;SHT31;74510;42.676;23.432;2024-03-02T07:30:32;7.36;93.07
84330;SHT31;74510;42.676;23.432;2024-03-02T07:32:58;7.40;92.74
84330;SHT31;74510;42.676;23.432;2024-03-02T07:35:24;7.38;92.88
84330;SHT31;74510;42.676;23.432;2024-03-02T07:37:53;7.42;92.82
84330;SHT31;74510;42.676;23.432;2024-03-02T07:40:19;7.48;92.76
84330;SHT31;74510;42.676;23.432;2024-03-02T07:42:45;7.48;92.88
84330;SHT31;74510;42.676;23.432;2024-03-02T07:45:11;7.51;93.09
84330;SHT31;74510;42.676;23.432;2024-03-02T07:47:36;7.50;92.88
84330;SHT31;74510;42.676;23.432;2024-03-02T07:50:02;7.48;92.89
84330;SHT31;74510;42.676;23.432;2024-03-02T07:52:28;7.53;92.83
84330;SHT31;74510;42.676;23.432;2024-03-02T07:54:53;7.57;92.94
84330;SHT31;74510;42.676;23.432;2024-03-02T07:57:19;7.57;92.79
84330;SHT31;74510;42.676;23.432;2024-03-02T07:59:45;7.61;92.70
84330;SHT31;74510;42.676;23.432;2024-03-02T08:02:10;7.57;92.36
84330;SHT31;74510;42.676;23.432;2024-03-02T08:04:37;7.58;92.15
84330;SHT31;74510;42.676;23.432;2024-03-02T08:07:03;7.65;92.17
84330;SHT31;74510;42.676;23.432;2024-03-02T08:09:29;7.74;92.06
84330;SHT31;74510;42.676;23.432;2024-03-02T08:11:55;7.70;92.29
84330;SHT31;74510;42.676;23.432;2024-03-02T08:14:22;7.68;92.39
84330;SHT31;74510;42.676;23.432;2024-03-02T08:16:47;7.72;92.42
84330;SHT31;74510;42.676;23.432;2024-03-02T08:19:13;7.74;92.49
84330;SHT31;74510;42.676;23.432;2024-03-02T08:21:38;7.78;92.35
84330;SHT31;74510;42.676;23.432;2024-03-02T08:24:04;7.86;91.95
84330;SHT31;74510;42.676;23.432;2024-03-02T08:26:29;7.88;91.95
84330;SHT31;74510;42.676;23.432;2024-03-02T08:28:57;7.93;92.01
84330;SHT31;74510;42.676;23.432;2024-03-02T08:31:23;7.84;91.65
84330;SHT31;74510;42.676;23.432;2024-03-02T08:33:48;7.88;91.03
84330;SHT31;74510;42.676;23.432;2024-03-02T08:36:13;7.92;91.13
84330;SHT31;74510;42.676;23.432;2024-03-02T08:38:39;7.89;91.51
84330;SHT31;74510;42.676;23.432;2024-03-02T08:41:05;7.91;91.24
84330;SHT31;74510;42.676;23.432;2024-03-02T08:43:30;7.98;91.02
84330;SHT31;74510;42.676;23.432;2024-03-02T08:45:56;7.96;91.17
84330;SHT31;74510;42.676;23.432;2024-03-02T08:48:21;8.03;91.41
84330;SHT31;74510;42.676;23.432;2024-03-02T08:50:47;8.09;91.54
84330;SHT31;74510;42.676;23.432;2024-03-02T08:53:12;8.13;91.47
84330;SHT31;74510;42.676;23.432;2024-03-02T08:55:37;8.23;91.49
84330;SHT31;74510;42.676;23.432;2024-03-02T08:58:03;8.23;90.85
84330;SHT31;74510;42.676;23.432;2024-03-02T09:00:28;8.30;91.25
84330;SHT31;74510;42.676;23.432;2024-03-02T09:02:54;8.34;90.95
84330;SHT31;74510;42.676;23.432;2024-03-02T09:05:19;8.34;90.28
84330;SHT31;74510;42.676;23.432;2024-03-02T09:07:45;8.30;90.21
84330;SHT31;74510;42.676;23.432;2024-03-02T09:10:10;8.36;89.69
84330;SHT31;74510;42.676;23.432;2024-03-02T09:12:37;8.50;90.12
84330;SHT31;74510;42.676;23.432;2024-03-02T09:15:03;8.40;90.07
84330;SHT31;74510;42.676;23.432;2024-03-02T09:17:29;8.44;90.26
84330;SHT31;74510;42.676;23.432;2024-03-02T09:19:55;8.47;90.11
84330;SHT31;74510;42.676;23.432;2024-03-02T09:22:20;8.49;90.05
84330;SHT31;74510;42.676;23.432;2024-03-02T09:24:46;8.53;90.05
84330;SHT31;74510;42.676;23.432;2024-03-02T09:27:11;8.65;89.51
84330;SHT31;74510;42.676;23.432;2024-03-02T09:29:37;8.74;89.79
84330;SHT31;74510;42.676;23.432;2024-03-02T09:32:05;8.63;89.16
84330;SHT31;74510;42.676;23.432;2024-03-02T09:34:31;8.63;89.42
84330;SHT31;74510;42.676;23.432;2024-03-02T09:36:57;8.65;88.69
84330;SHT31;74510;42.676;23.432;2024-03-02T09:39:22;8.68;89.37
84330;SHT31;74510;42.676;23.432;2024-03-02T09:41:48;8.67;89.57
84330;SHT31;74510;42.676;23.432;2024-03-02T09:44:14;8.63;89.59
84330;SHT31;74510;42.676;23.432;2024-03-02T09:46:39;8.71;90.27
84330;SHT31;74510;42.676;23.432;2024-03-02T09:49:05;8.71;89.10
84330;SHT31;74510;42.676;23.432;2024-03-02T09:51:31;8.80;89.07
84330;SHT31;74510;42.676;23.432;2024-03-02T09:53:57;8.77;89.07
84330;SHT31;74510;42.676;23.432;2024-03-02T09:56:22;8.87;88.85
84330;SHT31;74510;42.676;23.432;2024-03-02T09:58:48;8.85;88.82
84330;SHT31;74510;42.676;23.432;2024-03-02T10:01:13;8.87;89.43
84330;SHT31;74510;42.676;23.432;2024-03-02T10:03:39;8.87;88.18
84330;SHT31;74510;42.676;23.432;2024-03-02T10:06:19;8.84;88.89
84330;SHT31;74510;42.676;23.432;2024-03-02T10:08:44;8.81;88.98
84330;SHT31;74510;42.676;23.432;2024-03-02T10:11:10;8.88;89.22
84330;SHT31;74510;42.676;23.432;2024-03-02T10:13:36;8.93;88.67
84330;SHT31;74510;42.676;23.432;2024-03-02T10:16:11;8.85;87.82
84330;SHT31;74510;42.676;23.432;2024-03-02T10:18:37;9.01;87.76
84330;SHT31;74510;42.676;23.432;2024-03-02T10:21:13;8.88;87.83
84330;SHT31;74510;42.676;23.432;2024-03-02T10:23:39;8.95;87.50
84330;SHT31;74510;42.676;23.432;2024-03-02T10:26:16;8.88;87.76
84330;SHT31;74510;42.676;23.432;2024-03-02T10:28:47;8.91;88.20
84330;SHT31;74510;42.676;23.432;2024-03-02T10:31:17;8.93;87.80
84330;SHT31;74510;42.676;23.432;2024-03-02T10:33:42;8.81;86.95
84330;SHT31;74510;42.676;23.432;2024-03-02T10:36:08;8.97;87.76
84330;SHT31;74510;42.676;23.432;2024-03-02T10:38:34;8.87;87.77
84330;SHT31;74510;42.676;23.432;2024-03-02T10:41:00;8.87;87.66
84330;SHT31;74510;42.676;23.432;2024-03-02T10:43:26;8.95;88.48
84330;SHT31;74510;42.676;23.432;2024-03-02T10:45:52;8.92;88.55
84330;SHT31;74510;42.676;23.432;2024-03-02T10:48:18;8.88;88.70
84330;SHT31;74510;42.676;23.432;2024-03-02T10:50:43;8.85;87.97
84330;SHT31;74510;42.676;23.432;2024-03-02T10:53:09;8.88;88.49
84330;SHT31;74510;42.676;23.432;2024-03-02T10:55:34;8.82;89.20
84330;SHT31;74510;42.676;23.432;2024-03-02T10:58:00;8.80;89.27
84330;SHT31;74510;42.676;23.432;2024-03-02T11:00:33;8.82;89.32
84330;SHT31;74510;42.676;23.432;2024-03-02T11:03:06;8.93;88.45
84330;SHT31;74510;42.676;23.432;2024-03-02T11:05:36;8.93;88.13
84330;SHT31;74510;42.676;23.432;2024-03-02T11:08:07;8.92;88.65
84330;SHT31;74510;42.676;23.432;2024-03-02T11:10:44;9.01;89.09
84330;SHT31;74510;42.676;23.432;2024-03-02T11:13:12;9.01;88.63
84330;SHT31;74510;42.676;23.432;2024-03-02T11:15:40;9.04;88.25
84330;SHT31;74510;42.676;23.432;2024-03-02T11:18:09;9.11;88.49
84330;SHT31;74510;42.676;23.432;2024-03-02T11:20:39;9.15;88.90
84330;SHT31;74510;42.676;23.432;2024-03-02T11:23:08;9.09;88.73
84330;SHT31;74510;42.676;23.432;2024-03-02T11:25:34;9.11;88.63
84330;SHT31;74510;42.676;23.432;2024-03-02T11:28:06;9.14;88.47
84330;SHT31;74510;42.676;23.432;2024-03-02T11:33:08;9.09;87.68
84330;SHT31;74510;42.676;23.432;2024-03-02T11:35:41;9.07;87.61
84330;SHT31;74510;42.676;23.432;2024-03-02T11:38:09;9.05;87.08
84330;SHT31;74510;42.676;23.432;2024-03-02T11:40:35;8.99;86.00
84330;SHT31;74510;42.676;23.432;2024-03-02T11:43:00;8.91;87.75
84330;SHT31;74510;42.676;23.432;2024-03-02T11:45:26;8.97;88.09
84330;SHT31;74510;42.676;23.432;2024-03-02T11:47:57;8.99;88.34
84330;SHT31;74510;42.676;23.432;2024-03-02T11:53:07;8.95;87.00
84330;SHT31;74510;42.676;23.432;2024-03-02T11:55:36;9.07;86.29
84330;SHT31;74510;42.676;23.432;2024-03-02T11:58:03;8.95;86.67
84330;SHT31;74510;42.676;23.432;2024-03-02T12:00:29;8.98;87.18
84330;SHT31;74510;42.676;23.432;2024-03-02T12:03:02;9.09;86.92
84330;SHT31;74510;42.676;23.432;2024-03-02T12:05:30;9.04;86.59
84330;SHT31;74510;42.676;23.432;2024-03-02T12:08:00;8.93;86.25
84330;SHT31;74510;42.676;23.432;2024-03-02T12:10:27;8.99;87.00
84330;SHT31;74510;42.676;23.432;2024-03-02T12:13:01;9.01;86.91
84330;SHT31;74510;42.676;23.432;2024-03-02T12:15:31;9.11;84.21
84330;SHT31;74510;42.676;23.432;2024-03-02T12:18:00;9.02;84.58
84330;SHT31;74510;42.676;23.432;2024-03-02T12:20:28;9.07;85.74
84330;SHT31;74510;42.676;23.432;2024-03-02T12:22:55;9.05;85.36
84330;SHT31;74510;42.676;23.432;2024-03-02T12:25:23;9.08;85.49
84330;SHT31;74510;42.676;23.432;2024-03-02T12:27:50;9.01;85.40
84330;SHT31;74510;42.676;23.432;2024-03-02T12:30:17;9.07;86.23
84330;SHT31;74510;42.676;23.432;2024-03-02T12:32:42;9.14;84.33
84330;SHT31;74510;42.676;23.432;2024-03-02T12:35:10;9.08;84.24
84330;SHT31;74510;42.676;23.432;2024-03-02T12:37:47;9.12;85.47
84330;SHT31;74510;42.676;23.432;2024-03-02T12:40:14;9.16;85.02
84330;SHT31;74510;42.676;23.432;2024-03-02T12:42:40;9.22;86.21
84330;SHT31;74510;42.676;23.432;2024-03-02T12:45:08;9.25;85.65
84330;SHT31;74510;42.676;23.432;2024-03-02T12:47:34;9.44;84.87
84330;SHT31;74510;42.676;23.432;2024-03-02T12:50:00;9.42;86.79
84330;SHT31;74510;42.676;23.432;2024-03-02T12:52:26;9.47;86.89
84330;SHT31;74510;42.676;23.432;2024-03-02T12:54:52;9.49;86.15
84330;SHT31;74510;42.676;23.432;2024-03-02T12:57:21;9.53;84.43
84330;SHT31;74510;42.676;23.432;2024-03-02T12:59:47;9.46;84.76
84330;SHT31;74510;42.676;23.432;2024-03-02T13:02:19;9.47;83.96
84330;SHT31;74510;42.676;23.432;2024-03-02T13:04:52;9.43;84.32
84330;SHT31;74510;42.676;23.432;2024-03-02T13:07:19;9.42;83.74
84330;SHT31;74510;42.676;23.432;2024-03-02T13:09:45;9.38;84.68
84330;SHT31;74510;42.676;23.432;2024-03-02T13:12:11;9.36;85.42
84330;SHT31;74510;42.676;23.432;2024-03-02T13:14:37;9.36;84.78
84330;SHT31;74510;42.676;23.432;2024-03-02T13:17:02;9.42;84.82
84330;SHT31;74510;42.676;23.432;2024-03-02T13:19:30;9.50;83.48
84330;SHT31;74510;42.676;23.432;2024-03-02T13:21:57;9.46;84.69
84330;SHT31;74510;42.676;23.432;2024-03-02T13:24:22;9.46;84.47
84330;SHT31;74510;42.676;23.432;2024-03-02T13:26:51;9.53;84.48
84330;SHT31;74510;42.676;23.432;2024-03-02T13:29:21;9.59;84.73
84330;SHT31;74510;42.676;23.432;2024-03-02T13:31:46;9.60;83.24
84330;SHT31;74510;42.676;23.432;2024-03-02T13:34:11;9.61;83.47
84330;SHT31;74510;42.676;23.432;2024-03-02T13:36:37;9.61;82.50
84330;SHT31;74510;42.676;23.432;2024-03-02T13:39:04;9.63;83.09
84330;SHT31;74510;42.676;23.432;2024-03-02T13:41:33;9.54;83.07
84330;SHT31;74510;42.676;23.432;2024-03-02T13:43:59;9.50;81.60
84330;SHT31;74510;42.676;23.432;2024-03-02T13:46:26;9.42;82.19
84330;SHT31;74510;42.676;23.432;2024-03-02T13:48:52;9.42;83.14
84330;SHT31;74510;42.676;23.432;2024-03-02T13:51:17;9.42;84.02
84330;SHT31;74510;42.676;23.432;2024-03-02T13:53:43;9.43;82.51
84330;SHT31;74510;42.676;23.432;2024-03-02T13:56:08;9.35;83.50
84330;SHT31;74510;42.676;23.432;2024-03-02T13:58:34;9.42;84.13
84330;SHT31;74510;42.676;23.432;2024-03-02T14:00:59;9.42;83.23
84330;SHT31;74510;42.676;23.432;2024-03-02T14:03:27;9.42;83.81
84330;SHT31;74510;42.676;23.432;2024-03-02T14:05:53;9.36;82.59
84330;SHT31;74510;42.676;23.432;2024-03-02T14:08:18;9.44;82.90
84330;SHT31;74510;42.676;23.432;2024-03-02T14:10:44;9.44;83.89
84330;SHT31;74510;42.676;23.432;2024-03-02T14:13:09;9.49;83.81
84330;SHT31;74510;42.676;23.432;2024-03-02T14:15:35;9.46;83.84
84330;SHT31;74510;42.676;23.432;2024-03-02T14:18:04;9.47;82.44
84330;SHT31;74510;42.676;23.432;2024-03-02T14:20:29;9.47;83.24
84330;SHT31;74510;42.676;23.432;2024-03-02T14:22:55;9.56;83.23
84330;SHT31;74510;42.676;23.432;2024-03-02T14:25:20;9.60;84.03
84330;SHT31;74510;42.676;23.432;2024-03-02T14:27:46;9.59;83.10
84330;SHT31;74510;42.676;23.432;2024-03-02T14:30:12;9.50;83.26
84330;SHT31;74510;42.676;23.432;2024-03-02T14:32:38;9.47;83.97
84330;SHT31;74510;42.676;23.432;2024-03-02T14:35:04;9.44;84.28
84330;SHT31;74510;42.676;23.432;2024-03-02T14:37:29;9.42;83.98
84330;SHT31;74510;42.676;23.432;2024-03-02T14:39:55;9.51;82.89
84330;SHT31;74510;42.676;23.432;2024-03-02T14:42:21;9.46;82.73
84330;SHT31;74510;42.676;23.432;2024-03-02T14:44:47;9.39;84.08
84330;SHT31;74510;42.676;23.432;2024-03-02T14:47:13;9.46;84.48
84330;SHT31;74510;42.676;23.432;2024-03-02T14:49:38;9.47;84.71
84330;SHT31;74510;42.676;23.432;2024-03-02T14:52:06;9.51;84.51
84330;SHT31;74510;42.676;23.432;2024-03-02T14:54:31;9.46;84.96
84330;SHT31;74510;42.676;23.432;2024-03-02T14:56:57;9.56;83.67
84330;SHT31;74510;42.676;23.432;2024-03-02T14:59:22;9.70;82.51
84330;SHT31;74510;42.676;23.432;2024-03-02T15:01:48;9.61;83.08
84330;SHT31;74510;42.676;23.432;2024-03-02T15:04:14;9.53;82.09
84330;SHT31;74510;42.676;23.432;2024-03-02T15:06:42;9.47;82.42
84330;SHT31;74510;42.676;23.432;2024-03-02T15:09:07;9.46;82.45
84330;SHT31;74510;42.676;23.432;2024-03-02T15:11:33;9.42;82.95
84330;SHT31;74510;42.676;23.432;2024-03-02T15:13:59;9.44;83.12
84330;SHT31;74510;42.676;23.432;2024-03-02T15:16:24;9.39;82.29
84330;SHT31;74510;42.676;23.432;2024-03-02T15:18:50;9.40;80.96
84330;SHT31;74510;42.676;23.432;2024-03-02T15:21:15;9.35;81.85
84330;SHT31;74510;42.676;23.432;2024-03-02T15:23:40;9.53;81.93
84330;SHT31;74510;42.676;23.432;2024-03-02T15:26:06;9.50;82.11
84330;SHT31;74510;42.676;23.432;2024-03-02T15:28:32;9.42;81.95
84330;SHT31;74510;42.676;23.432;2024-03-02T15:30:57;9.40;82.20
84330;SHT31;74510;42.676;23.432;2024-03-02T15:33:23;9.50;81.13